Terminal Aerodrome Forecast
Issued by NWS Chicago, IL

Home | Current Version | Previous Version | Text Only | Print | Product List | Glossary Off
Versions: 1 2 3 4 5 6 7 8 9 10 11 12 13 14 15 16 17 18 19 20 21 22 23 24 25 26

888
FTUS43 KLOT 201745
TAFRFD
TAF
KRFD 201745Z 2018/2118 09015G23KT 6SM -RA BR OVC008
     FM201900 11016G22KT P6SM SCT004 OVC007
     FM202300 11007KT P6SM BKN014
     FM210400 14008KT 6SM -SHRA OVC020
     FM210700 23009KT P6SM BKN030
     FM211400 24014G21KT P6SM BKN040=

USA.gov is the U.S. government's official web portal to all federal, state and local government web resources and services.